Terminal Aerodrome Forecast
Issued by NWS Tuscon, AZ

Home | Current Version | Previous Version | Text Only | Print | Product List | Glossary On
Versions: 1 2 3 4 5 6 7 8 9 10 11 12 13 14 15 16 17 18 19 20 21 22
000
FTUS45 KTWC 010746 AAB
TAFTUS
TAF AMD
KTUS 010746Z 0108/0206 08012KT P6SM -TSRA SCT040 BKN080CB
     FM010930 15010KT P6SM SCT100 BKN250
     FM011900 21007KT P6SM FEW120 SCT250
     FM012200 19010KT P6SM SCT070 BKN250=

USA.gov is the U.S. government's official web portal to all federal, state and local government web resources and services.